< < Back
Terminal Aerodrome Forecast


Current Version              Previous Versions:   1  2  3  4  5  6  7  8  9  

Terminal Aerodrome Forecast

365
FTUS44 KMOB 041731
TAFMOB
TAF
KMOB 041731Z 0418/0518 12015G21KT P6SM BKN035 BKN060
     FM050300 15007KT P6SM SCT250
     FM051100 10006KT 6SM BR SCT030
     FM051500 09012KT P6SM SCT030=



Latest METAR

210
SAUS80 KWBC 042300 CCA
MTRMOB
METAR KMOB 042256Z 15012KT 10SM CLR 26/13 A3019 RMK AO2 SLP219
T02560133


USA.gov is the U.S. government's official web portal to all federal, state and local government web resources and services.